Time;durP1;ratioP1;P1;durP2;ratioP2;P2;SDS_P1;SDS_P2;PMS_P1;PMS_P2;Temp;Humidity;BMP_temperature;BMP_pressure;BME280_temperature;BME280_humidity;BME280_pressure;Samples;Min_cycle;Max_cycle;Signal;HPM_P1;HPM_P2
2022/09/14 00:01:29;;;;;;;3.15;1.50;;;19.20;28.40;;;;;;5073497;28;34440;-78
2022/09/14 00:03:59;;;;;;;5.78;1.83;;;19.20;28.20;;;;;;5071567;28;35651;-78
2022/09/14 00:06:26;;;;;;;3.42;1.90;;;19.30;29.30;;;;;;5069893;28;34177;-78
2022/09/14 00:08:53;;;;;;;2.80;1.85;;;19.20;29.20;;;;;;5073481;28;34269;-77
2022/09/14 00:11:31;;;;;;;4.53;1.80;;;19.20;29.30;;;;;;5088964;28;34012;-77
2022/09/14 00:13:58;;;;;;;3.28;1.60;;;19.30;28.60;;;;;;5056612;28;36029;-78
2022/09/14 00:16:43;;;;;;;5.53;1.88;;;19.30;28.60;;;;;;5090857;28;34282;-77
2022/09/14 00:19:28;;;;;;;2.17;1.58;;;19.30;29.10;;;;;;5064919;28;34463;-77
2022/09/14 00:24:36;;;;;;;1.75;1.50;;;19.30;28.60;;;;;;5080013;28;34333;-78
2022/09/14 00:27:14;;;;;;;6.07;1.70;;;19.20;29.60;;;;;;5099387;27;34227;-77
2022/09/14 00:29:39;;;;;;;2.40;1.50;;;19.20;28.60;;;;;;5110336;27;34219;-76
2022/09/14 00:32:05;;;;;;;4.57;1.52;;;19.20;28.80;;;;;;5111510;27;34140;-76
2022/09/14 00:34:33;;;;;;;3.00;1.80;;;19.20;28.50;;;;;;5103016;27;34382;-78
2022/09/14 00:36:59;;;;;;;3.85;1.80;;;19.20;28.90;;;;;;5091036;28;34112;-77
2022/09/14 00:39:27;;;;;;;11.63;2.13;;;19.20;28.30;;;;;;5090025;28;34124;-77
2022/09/14 00:41:53;;;;;;;3.13;1.70;;;19.20;28.60;;;;;;5073799;28;34289;-77
2022/09/14 00:44:57;;;;;;;3.90;1.80;;;19.20;28.70;;;;;;5121810;27;35104;-78
2022/09/14 00:47:23;;;;;;;6.38;1.90;;;19.20;30.40;;;;;;5097286;27;34493;-78
2022/09/14 00:49:49;;;;;;;3.13;1.70;;;19.20;28.60;;;;;;5113047;27;34211;-78
2022/09/14 00:52:23;;;;;;;2.97;1.70;;;19.20;28.50;;;;;;5110597;27;34122;-78
2022/09/14 00:54:54;;;;;;;6.30;2.42;;;19.20;28.70;;;;;;5109931;27;35918;-79
2022/09/14 00:57:24;;;;;;;6.22;1.75;;;19.30;29.10;;;;;;5094596;27;34184;-78
2022/09/14 00:59:52;;;;;;;3.95;1.60;;;19.20;28.70;;;;;;5109537;27;34277;-78
2022/09/14 01:02:21;;;;;;;4.00;1.65;;;19.20;29.30;;;;;;5109523;27;34537;-78
2022/09/14 01:04:48;;;;;;;8.52;2.17;;;19.20;29.30;;;;;;5089151;28;35544;-78
2022/09/14 01:07:39;;;;;;;5.03;1.88;;;19.20;28.70;;;;;;5093971;27;34490;-77
2022/09/14 01:10:35;;;;;;;4.68;2.00;;;19.30;30.30;;;;;;5108536;27;34203;-77
2022/09/14 01:13:28;;;;;;;3.70;1.63;;;19.20;30.20;;;;;;5112603;27;34115;-78
2022/09/14 01:16:12;;;;;;;2.42;1.80;;;19.30;29.20;;;;;;5093322;27;35625;-78
2022/09/14 01:18:44;;;;;;;2.65;1.80;;;19.30;29.50;;;;;;5107374;27;34378;-77
2022/09/14 01:21:18;;;;;;;3.17;1.73;;;19.30;29.30;;;;;;5091134;27;34188;-78
2022/09/14 01:23:56;;;;;;;3.53;1.75;;;19.30;29.20;;;;;;5116759;27;34250;-78
2022/09/14 01:26:49;;;;;;;7.80;2.03;;;19.30;29.40;;;;;;5107341;27;35667;-78
2022/09/14 01:29:22;;;;;;;4.32;1.70;;;19.30;30.10;;;;;;5107565;27;34060;-77
2022/09/14 01:31:58;;;;;;;6.10;1.83;;;19.30;29.50;;;;;;5091256;27;34485;-78
2022/09/14 01:34:44;;;;;;;3.78;1.77;;;19.30;30.00;;;;;;5106759;27;34554;-78
2022/09/14 01:37:17;;;;;;;4.82;2.03;;;19.30;30.50;;;;;;5090229;27;36080;-79
2022/09/14 01:39:50;;;;;;;5.65;2.05;;;19.30;29.80;;;;;;5090146;27;34515;-78
2022/09/14 01:42:19;;;;;;;7.80;2.15;;;19.30;29.70;;;;;;5125396;27;34048;-78
2022/09/14 01:44:51;;;;;;;4.75;1.63;;;19.30;29.00;;;;;;5090898;27;34275;-78
2022/09/14 01:47:34;;;;;;;4.63;1.75;;;19.30;29.70;;;;;;5104967;27;35614;-79
2022/09/14 01:50:09;;;;;;;3.53;1.63;;;19.30;30.30;;;;;;5098454;27;34264;-78
2022/09/14 01:52:47;;;;;;;2.85;1.50;;;19.30;29.30;;;;;;5107244;27;34093;-78
2022/09/14 01:55:24;;;;;;;2.42;1.55;;;19.30;30.20;;;;;;5123618;27;34368;-78
2022/09/14 01:57:59;;;;;;;3.47;1.77;;;19.30;30.10;;;;;;5106356;27;35660;-77
2022/09/14 02:00:25;;;;;;;3.70;1.83;;;19.30;29.20;;;;;;5107408;27;34205;-78
2022/09/14 02:02:57;;;;;;;4.55;2.00;;;19.30;29.20;;;;;;5084963;28;34182;-79
2022/09/14 02:05:43;;;;;;;2.83;1.63;;;19.30;29.60;;;;;;5106871;27;34406;-79
2022/09/14 02:08:12;;;;;;;4.85;1.95;;;19.30;29.90;;;;;;5088069;27;35511;-79
2022/09/14 02:10:39;;;;;;;3.17;2.00;;;19.30;29.80;;;;;;5106178;27;34162;-79
2022/09/14 02:13:05;;;;;;;2.42;1.70;;;19.30;29.20;;;;;;5127937;27;34346;-79
2022/09/14 02:15:33;;;;;;;2.78;1.80;;;19.30;29.70;;;;;;5126472;27;34040;-78
2022/09/14 02:17:59;;;;;;;4.80;1.73;;;19.40;29.50;;;;;;5106875;27;35887;-78
2022/09/14 02:20:36;;;;;;;3.58;1.50;;;19.30;29.50;;;;;;5106678;27;34243;-78
2022/09/14 02:23:02;;;;;;;4.22;1.60;;;19.30;29.10;;;;;;5095684;27;34231;-78
2022/09/14 02:25:29;;;;;;;4.28;1.80;;;19.30;29.20;;;;;;5107826;27;34022;-78
2022/09/14 02:27:55;;;;;;;2.58;1.60;;;19.40;29.60;;;;;;5107827;27;36321;-78
2022/09/14 02:30:21;;;;;;;4.20;2.10;;;19.30;29.60;;;;;;5107254;27;34265;-78
2022/09/14 02:33:15;;;;;;;2.25;1.70;;;19.30;29.90;;;;;;5107025;27;34149;-78
2022/09/14 02:35:50;;;;;;;2.92;1.90;;;19.40;29.90;;;;;;5107854;27;34005;-78
2022/09/14 02:38:43;;;;;;;2.65;1.70;;;19.30;29.30;;;;;;5106885;27;34389;-78
2022/09/14 02:41:23;;;;;;;3.28;1.63;;;19.30;29.60;;;;;;5107271;27;34084;-78
2022/09/14 02:44:24;;;;;;;2.15;1.60;;;19.30;30.00;;;;;;5118280;27;34285;-78
2022/09/14 02:47:00;;;;;;;3.03;1.70;;;19.30;30.10;;;;;;5091748;27;34496;-78
2022/09/14 02:49:39;;;;;;;3.65;1.70;;;19.30;30.00;;;;;;5106938;27;35601;-78
2022/09/14 02:52:19;;;;;;;6.93;2.05;;;19.30;30.40;;;;;;5109547;27;34048;-78
2022/09/14 02:54:56;;;;;;;3.88;1.73;;;19.30;30.50;;;;;;5096331;28;34374;-78
2022/09/14 02:57:22;;;;;;;4.85;1.73;;;19.30;30.20;;;;;;5110218;27;34162;-78
2022/09/14 02:59:48;;;;;;;2.15;1.70;;;19.30;30.50;;;;;;5110427;27;35976;-78
2022/09/14 03:02:14;;;;;;;3.10;1.77;;;19.30;30.30;;;;;;5109915;27;34391;-77
2022/09/14 03:04:39;;;;;;;4.80;2.22;;;19.30;30.30;;;;;;5101470;28;34293;-77
2022/09/14 03:07:05;;;;;;;2.80;1.75;;;19.30;30.10;;;;;;5101247;27;34457;-78
2022/09/14 03:09:31;;;;;;;5.40;1.60;;;19.30;30.00;;;;;;5092387;27;36267;-78
2022/09/14 03:11:57;;;;;;;2.33;1.75;;;19.30;29.80;;;;;;5092995;27;34203;-78
2022/09/14 03:14:23;;;;;;;3.35;1.85;;;19.30;29.50;;;;;;5107635;28;34117;-79
2022/09/14 03:16:49;;;;;;;4.13;1.90;;;19.30;29.90;;;;;;5124382;27;34363;-78
2022/09/14 03:19:16;;;;;;;3.45;1.60;;;19.30;30.20;;;;;;5110799;27;36147;-78
2022/09/14 03:21:42;;;;;;;2.85;2.45;;;19.30;30.10;;;;;;5130041;27;34063;-79
2022/09/14 03:24:08;;;;;;;1.73;1.50;;;19.30;29.90;;;;;;5115369;27;34311;-78
2022/09/14 03:26:37;;;;;;;2.55;1.85;;;19.30;30.20;;;;;;5130918;27;34412;-79
2022/09/14 03:29:04;;;;;;;2.70;1.65;;;19.30;30.30;;;;;;5111765;27;36371;-79
2022/09/14 03:31:30;;;;;;;2.05;1.88;;;19.30;30.30;;;;;;5112494;27;34178;-79
2022/09/14 03:33:58;;;;;;;2.63;1.58;;;19.30;29.70;;;;;;5110904;27;34069;-79
2022/09/14 03:36:26;;;;;;;2.85;1.63;;;19.30;30.10;;;;;;5090017;27;34067;-79
2022/09/14 03:38:54;;;;;;;3.50;1.90;;;19.30;30.30;;;;;;5089011;28;35814;-79
2022/09/14 03:41:21;;;;;;;2.13;1.80;;;19.30;30.20;;;;;;5071982;28;34124;-78
2022/09/14 03:43:53;;;;;;;4.45;1.70;;;19.30;30.60;;;;;;5090078;28;34199;-78
2022/09/14 03:46:24;;;;;;;2.10;1.88;;;19.30;30.60;;;;;;5126062;27;34323;-78
2022/09/14 03:48:51;;;;;;;2.97;1.88;;;19.30;30.50;;;;;;5126782;27;34394;-78
2022/09/14 03:51:17;;;;;;;4.38;1.58;;;19.30;30.10;;;;;;5109071;27;34249;-78
2022/09/14 03:53:44;;;;;;;1.80;1.58;;;19.30;29.70;;;;;;5105004;27;34310;-78
2022/09/14 03:56:13;;;;;;;2.53;1.67;;;19.30;29.60;;;;;;5109463;27;34165;-78
2022/09/14 03:58:40;;;;;;;3.35;1.77;;;19.40;29.80;;;;;;5109519;27;36962;-78
2022/09/14 04:01:09;;;;;;;2.80;1.80;;;19.30;30.00;;;;;;5108633;27;34100;-78
2022/09/14 04:03:36;;;;;;;5.80;1.92;;;19.30;29.50;;;;;;5110057;27;34138;-78
2022/09/14 04:06:04;;;;;;;6.00;2.78;;;19.40;29.10;;;;;;5107012;28;34204;-78
2022/09/14 04:08:32;;;;;;;2.45;1.67;;;19.40;29.00;;;;;;5075050;27;36379;-78
2022/09/14 04:10:58;;;;;;;2.92;1.63;;;19.40;28.90;;;;;;5107841;27;34385;-77
2022/09/14 04:13:24;;;;;;;3.13;1.88;;;19.30;28.90;;;;;;5102660;28;34194;-77
2022/09/14 04:15:59;;;;;;;2.00;1.85;;;19.30;28.90;;;;;;5093271;27;34389;-78
2022/09/14 04:18:25;;;;;;;2.03;1.73;;;19.40;29.10;;;;;;5108392;27;36065;-78
2022/09/14 04:20:55;;;;;;;2.72;1.90;;;19.40;28.90;;;;;;5088906;28;34169;-78
2022/09/14 04:23:21;;;;;;;1.67;1.58;;;19.40;29.00;;;;;;5071957;28;34465;-78
2022/09/14 04:25:47;;;;;;;2.17;1.70;;;19.40;29.00;;;;;;5092516;28;34317;-79
2022/09/14 04:28:13;;;;;;;6.50;2.03;;;19.40;29.10;;;;;;5074236;28;36451;-79
2022/09/14 04:30:39;;;;;;;3.25;1.92;;;19.30;29.10;;;;;;5109071;28;34349;-78
2022/09/14 04:33:05;;;;;;;2.13;1.70;;;19.30;28.80;;;;;;5110264;27;34151;-79
2022/09/14 04:35:31;;;;;;;5.18;2.72;;;19.30;29.20;;;;;;5093656;27;33969;-79
2022/09/14 04:37:57;;;;;;;3.17;1.88;;;19.30;28.80;;;;;;5110488;27;35787;-78
2022/09/14 04:40:23;;;;;;;3.00;1.80;;;19.30;29.10;;;;;;5093436;27;34115;-78
2022/09/14 04:42:49;;;;;;;6.28;2.00;;;19.30;28.90;;;;;;5110280;27;34284;-78
2022/09/14 04:45:15;;;;;;;2.08;1.80;;;19.30;28.90;;;;;;5108359;27;34100;-78
2022/09/14 04:47:41;;;;;;;1.92;1.63;;;19.30;29.30;;;;;;5091481;27;35507;-78
2022/09/14 04:50:07;;;;;;;6.45;1.95;;;19.20;29.10;;;;;;5108210;27;34134;-78
2022/09/14 04:52:33;;;;;;;3.17;1.92;;;19.30;29.00;;;;;;5107629;27;34178;-78
2022/09/14 04:54:59;;;;;;;3.45;2.00;;;19.20;28.90;;;;;;5088805;27;34123;-78
2022/09/14 04:57:25;;;;;;;2.92;1.85;;;19.20;29.20;;;;;;5071360;28;35850;-78
2022/09/14 04:59:51;;;;;;;9.18;6.25;;;19.30;29.30;;;;;;5091076;28;33584;-78
2022/09/14 05:02:17;;;;;;;2.42;2.22;;;19.20;29.10;;;;;;5088732;28;34259;-78
2022/09/14 05:04:43;;;;;;;3.95;2.30;;;19.20;29.20;;;;;;5088547;27;34018;-78
2022/09/14 05:07:09;;;;;;;2.45;1.92;;;19.20;29.20;;;;;;5126574;27;35291;-79
2022/09/14 05:09:34;;;;;;;5.05;2.03;;;19.30;29.50;;;;;;5109597;27;34447;-78
2022/09/14 05:12:01;;;;;;;2.92;2.38;;;19.30;29.30;;;;;;5108749;27;34372;-78
2022/09/14 05:14:26;;;;;;;2.38;1.88;;;19.20;29.30;;;;;;5085611;27;34963;-78
2022/09/14 05:16:53;;;;;;;5.60;2.28;;;19.20;29.30;;;;;;5099670;28;36465;-78
2022/09/14 05:19:19;;;;;;;3.78;2.50;;;19.20;29.30;;;;;;5088754;28;34397;-78
2022/09/14 05:21:46;;;;;;;3.47;2.50;;;19.20;29.30;;;;;;5087879;28;34179;-78
2022/09/14 05:24:15;;;;;;;2.22;2.03;;;19.20;29.90;;;;;;5104635;27;34321;-78
2022/09/14 05:26:42;;;;;;;3.33;2.20;;;19.20;29.40;;;;;;5105721;27;35970;-78
2022/09/14 05:29:12;;;;;;;3.95;2.30;;;19.20;29.30;;;;;;5107168;27;34147;-78
2022/09/14 05:31:38;;;;;;;2.70;2.28;;;19.20;29.20;;;;;;5090227;27;34185;-78
2022/09/14 05:34:04;;;;;;;4.03;2.10;;;19.30;30.00;;;;;;5090388;27;34180;-78
2022/09/14 05:36:36;;;;;;;3.78;2.13;;;19.30;30.30;;;;;;5102413;27;36149;-78
2022/09/14 05:39:06;;;;;;;5.45;2.00;;;19.30;30.70;;;;;;5104247;28;34078;-78
2022/09/14 05:41:50;;;;;;;3.80;2.20;;;19.30;30.40;;;;;;5100901;28;34124;-78
2022/09/14 05:44:17;;;;;;;5.47;2.05;;;19.30;30.60;;;;;;5104949;27;34435;-78
2022/09/14 05:46:42;;;;;;;2.50;2.30;;;19.30;30.40;;;;;;5101991;27;35760;-77
2022/09/14 05:49:08;;;;;;;5.00;2.13;;;19.30;30.40;;;;;;5103319;28;34081;-77
2022/09/14 05:51:34;;;;;;;2.25;2.05;;;19.30;30.40;;;;;;5104387;28;34304;-77
2022/09/14 05:54:09;;;;;;;2.40;1.83;;;19.40;30.30;;;;;;5087268;28;34294;-78
2022/09/14 05:56:35;;;;;;;4.50;1.92;;;19.40;30.30;;;;;;5078791;27;36590;-78
2022/09/14 05:59:00;;;;;;;2.65;2.30;;;19.40;30.10;;;;;;5108732;27;34347;-78
2022/09/14 06:01:29;;;;;;;3.78;2.50;;;19.40;30.10;;;;;;5107860;27;34143;-78
2022/09/14 06:03:57;;;;;;;6.22;2.47;;;19.40;30.30;;;;;;5108234;27;34187;-78
2022/09/14 06:06:23;;;;;;;4.38;2.53;;;19.40;30.20;;;;;;5106537;27;36345;-78
2022/09/14 06:08:52;;;;;;;3.72;2.50;;;19.40;30.30;;;;;;5105217;27;34065;-78
2022/09/14 06:11:22;;;;;;;4.60;2.90;;;19.40;30.10;;;;;;5106682;27;34115;-78
2022/09/14 06:13:48;;;;;;;4.88;2.60;;;19.40;30.40;;;;;;5108751;27;34356;-77
2022/09/14 06:16:17;;;;;;;3.60;2.95;;;19.50;30.60;;;;;;5108394;27;36433;-78
2022/09/14 06:18:44;;;;;;;3.55;2.30;;;19.50;30.20;;;;;;5108728;27;34090;-77
2022/09/14 06:21:15;;;;;;;3.03;2.65;;;19.50;30.60;;;;;;5101987;27;34365;-78
2022/09/14 06:23:42;;;;;;;3.67;3.10;;;19.60;30.60;;;;;;5117914;27;34338;-77
2022/09/14 06:26:08;;;;;;;5.32;3.17;;;19.60;30.50;;;;;;5129054;27;34408;-78
2022/09/14 06:28:35;;;;;;;6.97;2.95;;;19.60;30.60;;;;;;5112841;27;34164;-77
2022/09/14 06:31:03;;;;;;;3.53;2.88;;;19.60;30.20;;;;;;5130950;27;34168;-78
2022/09/14 06:33:29;;;;;;;4.55;2.80;;;19.70;30.70;;;;;;5094783;27;34275;-77
2022/09/14 06:35:58;;;;;;;3.95;2.88;;;19.70;30.50;;;;;;5097237;28;36026;-77
2022/09/14 06:38:25;;;;;;;3.42;2.58;;;19.70;30.00;;;;;;5090468;28;34196;-78
2022/09/14 06:40:55;;;;;;;4.30;2.63;;;19.70;30.10;;;;;;5109603;28;34202;-77
2022/09/14 06:43:22;;;;;;;5.60;3.03;;;19.80;30.00;;;;;;5123374;27;34333;-78
2022/09/14 06:45:59;;;;;;;3.45;2.80;;;19.90;30.40;;;;;;5116791;27;35046;-78
2022/09/14 06:48:28;;;;;;;6.03;3.20;;;19.90;30.70;;;;;;5099718;27;34462;-77
2022/09/14 06:50:53;;;;;;;4.82;2.80;;;20.00;30.20;;;;;;5125642;27;34227;-77
2022/09/14 06:53:20;;;;;;;3.72;2.65;;;20.00;30.20;;;;;;5119547;27;34155;-77
2022/09/14 06:55:46;;;;;;;4.78;2.90;;;20.10;30.00;;;;;;5112604;27;36062;-77
2022/09/14 06:58:12;;;;;;;3.08;2.63;;;20.20;30.10;;;;;;5116352;27;34250;-77
2022/09/14 07:00:38;;;;;;;3.00;2.70;;;20.30;29.90;;;;;;5118039;27;34146;-78
2022/09/14 07:03:05;;;;;;;2.95;2.65;;;20.30;29.80;;;;;;5112743;27;34073;-76
2022/09/14 07:05:31;;;;;;;2.95;2.55;;;20.30;30.10;;;;;;5119641;27;35772;-77
2022/09/14 07:07:57;;;;;;;4.07;2.75;;;20.40;29.50;;;;;;5150906;27;34172;-77
2022/09/14 07:10:27;;;;;;;6.88;3.25;;;20.40;30.00;;;;;;5131310;27;34252;-77
2022/09/14 07:12:54;;;;;;;7.07;2.97;;;20.50;29.80;;;;;;5103156;28;34099;-77
2022/09/14 07:15:23;;;;;;;3.60;3.13;;;20.40;29.20;;;;;;5071936;28;36716;-77
2022/09/14 07:17:49;;;;;;;4.05;3.20;;;20.50;29.40;;;;;;5073584;28;34077;-77
2022/09/14 07:20:15;;;;;;;4.03;2.78;;;20.50;29.00;;;;;;5107515;28;34057;-77
2022/09/14 07:22:41;;;;;;;3.38;3.08;;;20.50;29.40;;;;;;5101950;27;34033;-76
2022/09/14 07:25:08;;;;;;;3.85;3.35;;;20.60;29.50;;;;;;5098377;27;34386;-76
2022/09/14 07:27:37;;;;;;;5.38;3.95;;;20.60;29.40;;;;;;5062455;28;34214;-76
2022/09/14 07:30:06;;;;;;;6.95;3.33;;;20.70;29.20;;;;;;5086191;28;34283;-76
2022/09/14 07:32:32;;;;;;;5.47;3.42;;;20.60;29.20;;;;;;5086524;28;33855;-77
2022/09/14 07:34:58;;;;;;;7.50;3.55;;;20.60;29.60;;;;;;5098111;28;35737;-77
2022/09/14 07:37:24;;;;;;;5.88;3.25;;;20.60;29.80;;;;;;5109288;27;34216;-76
2022/09/14 07:39:50;;;;;;;9.52;4.22;;;20.60;29.50;;;;;;5093266;27;34196;-78
2022/09/14 07:42:16;;;;;;;7.88;4.63;;;20.60;29.50;;;;;;5103101;27;34351;-76
2022/09/14 07:44:42;;;;;;;11.98;5.70;;;20.60;28.90;;;;;;5127648;27;34657;-77
2022/09/14 07:47:08;;;;;;;11.50;5.70;;;20.50;29.10;;;;;;5109337;27;34275;-77
2022/09/14 07:49:34;;;;;;;17.90;7.47;;;20.60;29.20;;;;;;5107319;27;34304;-76
2022/09/14 07:52:00;;;;;;;15.82;6.80;;;20.50;29.30;;;;;;5094880;27;34332;-77
2022/09/14 07:54:26;;;;;;;12.23;7.60;;;20.50;29.00;;;;;;5116939;27;35212;-77
2022/09/14 07:56:52;;;;;;;11.60;6.45;;;20.50;29.00;;;;;;5097697;27;34076;-77
2022/09/14 07:59:18;;;;;;;17.55;7.30;;;20.50;29.10;;;;;;5106315;27;34372;-77
2022/09/14 08:01:45;;;;;;;16.08;6.88;;;20.40;29.20;;;;;;5133184;27;33761;-77
2022/09/14 08:04:11;;;;;;;18.15;7.10;;;20.40;29.30;;;;;;5132207;27;34670;-76
2022/09/14 08:06:39;;;;;;;19.48;7.35;;;20.40;29.30;;;;;;5095639;27;34183;-77
2022/09/14 08:09:07;;;;;;;14.35;7.18;;;20.40;29.20;;;;;;5109138;27;34170;-76
2022/09/14 08:11:34;;;;;;;17.63;8.07;;;20.40;29.30;;;;;;5110283;27;34133;-76
2022/09/14 08:14:03;;;;;;;16.85;7.70;;;20.40;29.40;;;;;;5115465;27;34770;-76
2022/09/14 08:16:31;;;;;;;14.38;7.82;;;20.30;29.50;;;;;;5108852;27;34282;-76
2022/09/14 08:19:00;;;;;;;17.30;8.15;;;20.30;29.90;;;;;;5104797;28;34216;-76
2022/09/14 08:21:27;;;;;;;15.82;8.20;;;20.30;29.10;;;;;;5106120;27;34171;-76
2022/09/14 08:23:54;;;;;;;18.25;8.13;;;20.40;29.60;;;;;;5109688;27;36210;-77
2022/09/14 08:26:22;;;;;;;17.00;8.60;;;20.40;29.40;;;;;;5117655;27;34019;-77
2022/09/14 08:28:49;;;;;;;15.20;8.25;;;20.50;29.10;;;;;;5091902;27;34218;-78
2022/09/14 08:31:20;;;;;;;18.23;9.27;;;20.60;29.10;;;;;;5102468;27;34084;-77
2022/09/14 08:33:49;;;;;;;18.33;8.85;;;20.60;29.20;;;;;;5109176;27;35022;-78
2022/09/14 08:36:18;;;;;;;20.38;9.00;;;20.70;29.00;;;;;;5123868;27;34347;-76
2022/09/14 08:38:44;;;;;;;19.48;7.88;;;20.80;28.80;;;;;;5094924;27;34685;-77
2022/09/14 08:41:27;;;;;;;20.08;9.15;;;20.80;28.60;;;;;;5097137;27;34319;-76
2022/09/14 08:43:54;;;;;;;18.67;9.25;;;21.00;28.70;;;;;;5081270;28;35650;-76
2022/09/14 08:46:33;;;;;;;18.52;9.00;;;20.90;27.90;;;;;;5106064;27;34208;-76
2022/09/14 08:49:02;;;;;;;20.58;8.50;;;21.00;27.80;;;;;;5122614;27;34247;-76
2022/09/14 08:51:29;;;;;;;18.88;8.88;;;21.00;28.10;;;;;;5121082;27;34503;-76
2022/09/14 08:53:58;;;;;;;17.75;8.82;;;21.00;28.00;;;;;;5129354;27;35761;-77
2022/09/14 08:56:31;;;;;;;17.13;8.43;;;21.00;28.60;;;;;;5124130;27;34341;-76
2022/09/14 08:59:33;;;;;;;15.50;8.50;;;21.00;28.40;;;;;;5115130;27;34223;-76
2022/09/14 09:02:23;;;;;;;18.33;9.02;;;21.00;29.00;;;;;;5100448;28;34427;-76
2022/09/14 09:05:19;;;;;;;16.10;7.75;;;21.10;29.10;;;;;;5105912;27;35500;-76
2022/09/14 09:08:09;;;;;;;22.42;8.38;;;21.10;29.30;;;;;;5112362;27;34214;-76
2022/09/14 09:10:38;;;;;;;16.10;8.30;;;21.20;28.70;;;;;;5093277;27;34147;-75
2022/09/14 09:13:09;;;;;;;16.63;8.77;;;21.30;28.50;;;;;;5102545;27;34477;-77
2022/09/14 09:15:43;;;;;;;17.67;9.13;;;21.30;28.40;;;;;;5123072;27;35851;-76
2022/09/14 09:18:28;;;;;;;16.90;9.50;;;21.40;28.30;;;;;;5126431;27;34176;-76
2022/09/14 09:21:13;;;;;;;15.95;9.00;;;21.40;28.40;;;;;;5128022;27;34320;-77
2022/09/14 09:23:40;;;;;;;16.42;8.93;;;21.40;28.10;;;;;;5125780;27;34350;-76
2022/09/14 09:26:27;;;;;;;15.48;9.77;;;21.40;28.40;;;;;;5120804;27;35581;-76
2022/09/14 09:28:56;;;;;;;15.80;9.38;;;21.50;28.90;;;;;;5109012;27;34274;-75
2022/09/14 09:31:32;;;;;;;17.15;9.18;;;21.40;28.40;;;;;;5126559;27;34168;-76
2022/09/14 09:33:59;;;;;;;18.33;9.88;;;21.40;28.80;;;;;;5109076;27;34502;-77
2022/09/14 09:36:30;;;;;;;17.13;10.10;;;21.40;28.80;;;;;;5109047;27;35628;-77
2022/09/14 09:38:58;;;;;;;19.25;11.35;;;21.40;28.40;;;;;;5106716;27;34191;-77
2022/09/14 09:41:28;;;;;;;15.38;9.50;;;21.40;28.60;;;;;;5107586;27;34167;-77
2022/09/14 09:43:59;;;;;;;17.60;10.27;;;21.50;28.40;;;;;;5128821;27;34421;-77
2022/09/14 09:46:28;;;;;;;17.10;10.23;;;21.50;29.30;;;;;;5127135;27;35674;-76
2022/09/14 09:48:56;;;;;;;17.48;10.48;;;21.50;28.20;;;;;;5116181;27;34032;-77
2022/09/14 09:51:27;;;;;;;19.40;10.50;;;21.60;28.30;;;;;;5134929;27;34438;-76
2022/09/14 09:54:06;;;;;;;21.67;10.65;;;21.60;28.30;;;;;;5107477;27;34154;-76
2022/09/14 09:56:35;;;;;;;16.90;10.52;;;21.60;28.30;;;;;;5098995;28;35812;-76
2022/09/14 09:59:01;;;;;;;18.55;10.00;;;21.60;28.60;;;;;;5089538;28;34017;-77
2022/09/14 10:01:30;;;;;;;16.70;10.10;;;21.60;28.40;;;;;;5082578;28;34076;-77
2022/09/14 10:04:04;;;;;;;18.40;10.88;;;21.60;28.90;;;;;;5077691;28;34240;-76
2022/09/14 10:06:31;;;;;;;20.60;10.23;;;21.60;28.50;;;;;;5113848;27;34355;-77
2022/09/14 10:08:57;;;;;;;20.20;10.98;;;21.60;28.20;;;;;;5100305;27;34219;-77
2022/09/14 10:11:29;;;;;;;23.98;11.20;;;21.60;28.30;;;;;;5067863;28;34298;-76
2022/09/14 10:13:55;;;;;;;21.40;10.73;;;21.60;28.70;;;;;;5100859;27;34363;-77
2022/09/14 10:16:23;;;;;;;20.88;10.68;;;21.70;28.50;;;;;;5088302;27;35602;-77
2022/09/14 10:18:51;;;;;;;16.67;10.98;;;21.80;28.30;;;;;;5107011;27;35608;-77
2022/09/14 10:21:21;;;;;;;16.73;10.18;;;21.90;27.80;;;;;;5105832;27;34285;-76
2022/09/14 10:24:08;;;;;;;17.58;11.15;;;22.20;28.10;;;;;;5102602;28;34356;-77
2022/09/14 10:26:36;;;;;;;18.05;10.88;;;22.50;28.10;;;;;;5074089;28;36805;-77
2022/09/14 10:29:34;;;;;;;18.75;10.52;;;22.70;27.60;;;;;;5082360;28;34133;-77
2022/09/14 10:32:09;;;;;;;18.80;10.48;;;22.80;27.40;;;;;;5078141;28;35060;-76
2022/09/14 10:34:35;;;;;;;17.55;9.75;;;23.00;27.40;;;;;;5089020;28;34212;-76
2022/09/14 10:37:31;;;;;;;19.27;10.35;;;23.10;26.90;;;;;;5086713;28;35661;-76
2022/09/14 10:40:15;;;;;;;14.45;9.25;;;23.20;27.10;;;;;;5091562;27;34342;-78
2022/09/14 10:43:02;;;;;;;16.05;9.75;;;23.20;26.30;;;;;;5102393;28;34364;-77
2022/09/14 10:45:38;;;;;;;17.05;9.25;;;23.30;26.90;;;;;;5089794;27;34187;-78
2022/09/14 10:48:21;;;;;;;13.98;9.07;;;23.40;27.10;;;;;;5077975;28;36429;-77
2022/09/14 10:51:05;;;;;;;15.88;9.20;;;23.50;26.20;;;;;;5081887;28;34287;-78
2022/09/14 10:54:01;;;;;;;15.43;8.65;;;23.70;27.10;;;;;;5088661;28;34207;-77
2022/09/14 10:56:50;;;;;;;13.00;8.80;;;23.80;27.00;;;;;;5101248;27;34595;-78
2022/09/14 10:59:35;;;;;;;14.25;8.18;;;23.90;25.50;;;;;;5105348;27;35887;-78
2022/09/14 11:02:30;;;;;;;12.38;8.18;;;23.90;25.10;;;;;;5102743;28;34133;-77
2022/09/14 11:05:21;;;;;;;15.93;7.75;;;24.00;25.20;;;;;;5078676;28;34198;-77
2022/09/14 11:08:00;;;;;;;12.60;8.35;;;24.00;26.00;;;;;;5092663;28;34360;-77
2022/09/14 11:10:42;;;;;;;15.45;8.32;;;24.10;26.40;;;;;;5082242;28;35664;-77
2022/09/14 11:13:42;;;;;;;11.32;7.18;;;24.10;24.70;;;;;;5068073;28;34329;-77
2022/09/14 11:16:34;;;;;;;12.45;7.38;;;24.20;25.60;;;;;;5054151;28;34236;-77
2022/09/14 11:19:21;;;;;;;15.07;8.02;;;24.20;23.50;;;;;;5068171;28;34178;-77
2022/09/14 11:22:07;;;;;;;12.38;7.78;;;24.30;23.80;;;;;;5085656;28;34097;-77
2022/09/14 11:24:48;;;;;;;15.98;7.65;;;24.30;23.90;;;;;;5068409;28;34056;-77
2022/09/14 11:27:28;;;;;;;11.77;7.40;;;24.50;24.50;;;;;;5067999;28;34314;-77
2022/09/14 11:30:03;;;;;;;13.88;8.18;;;24.60;25.60;;;;;;5100118;27;34443;-77
2022/09/14 11:32:48;;;;;;;10.68;6.93;;;24.70;24.50;;;;;;5070189;28;36422;-77
2022/09/14 11:35:24;;;;;;;10.93;6.68;;;24.80;23.00;;;;;;5083620;28;34203;-77
2022/09/14 11:38:01;;;;;;;9.65;6.88;;;24.90;24.00;;;;;;5083235;28;34227;-77
2022/09/14 11:40:34;;;;;;;11.20;6.90;;;25.00;23.80;;;;;;5106479;28;34122;-77
2022/09/14 11:43:19;;;;;;;13.80;6.72;;;25.00;22.80;;;;;;5071076;28;36506;-77
2022/09/14 11:45:54;;;;;;;10.75;6.28;;;25.20;23.80;;;;;;5106380;28;34179;-77
2022/09/14 11:48:40;;;;;;;9.25;6.32;;;25.40;22.50;;;;;;5106174;28;34095;-76
2022/09/14 11:51:14;;;;;;;9.10;5.75;;;25.80;22.60;;;;;;5088060;28;34413;-77
2022/09/14 11:53:42;;;;;;;7.53;4.72;;;26.20;22.30;;;;;;5087460;28;36488;-76
2022/09/14 11:56:25;;;;;;;8.00;5.07;;;26.50;22.00;;;;;;5087656;28;34515;-77
2022/09/14 11:59:15;;;;;;;5.72;3.50;;;26.80;21.30;;;;;;5074189;28;34325;-78
2022/09/14 12:01:50;;;;;;;5.95;3.53;;;27.10;21.80;;;;;;5092859;28;34061;-77
2022/09/14 12:04:16;;;;;;;5.25;2.97;;;27.20;20.40;;;;;;5072758;28;35619;-79
2022/09/14 12:06:46;;;;;;;3.97;2.50;;;27.20;20.00;;;;;;5090905;28;34211;-78
2022/09/14 12:09:38;;;;;;;3.88;3.13;;;27.10;19.20;;;;;;5088546;28;34156;-79
2022/09/14 12:12:07;;;;;;;5.05;2.65;;;26.90;16.00;;;;;;5074377;28;34342;-77
2022/09/14 12:14:42;;;;;;;3.17;2.50;;;26.80;20.00;;;;;;5076798;28;36655;-79
2022/09/14 12:17:33;;;;;;;4.72;2.22;;;27.00;19.10;;;;;;5091492;28;34274;-78
2022/09/14 12:20:28;;;;;;;3.63;2.33;;;27.10;18.00;;;;;;5088638;28;34379;-78
2022/09/14 12:23:20;;;;;;;5.97;2.38;;;27.20;17.30;;;;;;5089233;28;34039;-78
2022/09/14 12:26:07;;;;;;;4.00;2.33;;;27.30;17.00;;;;;;5107096;28;34173;-78
2022/09/14 12:28:46;;;;;;;8.25;2.15;;;27.20;15.00;;;;;;5110088;28;34182;-79
2022/09/14 12:31:31;;;;;;;1.92;1.83;;;27.20;16.20;;;;;;5090287;28;34196;-77
2022/09/14 12:34:14;;;;;;;6.00;2.40;;;27.10;16.70;;;;;;5090778;28;34212;-78
2022/09/14 12:37:00;;;;;;;6.25;2.03;;;27.20;18.10;;;;;;5102464;27;36986;-78
2022/09/14 12:39:35;;;;;;;2.30;1.92;;;27.20;17.30;;;;;;5109587;27;34260;-78
2022/09/14 12:42:23;;;;;;;5.00;1.70;;;27.20;18.70;;;;;;5111547;27;34197;-78
2022/09/14 12:44:49;;;;;;;5.57;1.70;;;27.40;19.00;;;;;;5127739;27;34291;-78
2022/09/14 12:47:48;;;;;;;3.88;1.73;;;27.40;18.70;;;;;;5120484;27;35533;-79
2022/09/14 12:50:18;;;;;;;4.70;1.38;;;27.30;14.80;;;;;;5089731;28;34196;-78
2022/09/14 12:53:00;;;;;;;4.07;1.70;;;27.20;18.00;;;;;;5095862;27;34365;-78
2022/09/14 12:55:48;;;;;;;2.63;1.83;;;27.10;15.80;;;;;;5128964;27;34438;-77
2022/09/14 12:58:36;;;;;;;2.33;1.48;;;27.00;17.60;;;;;;5094550;27;34521;-78
2022/09/14 13:01:23;;;;;;;3.55;1.63;;;26.90;15.70;;;;;;5085669;27;34132;-78
2022/09/14 13:03:53;;;;;;;3.38;1.42;;;26.70;14.90;;;;;;5073058;28;34319;-78
2022/09/14 13:06:32;;;;;;;3.22;1.70;;;26.60;17.80;;;;;;5090808;28;34331;-80
2022/09/14 13:08:58;;;;;;;4.15;1.60;;;26.50;17.00;;;;;;5074291;28;35622;-79
2022/09/14 13:11:32;;;;;;;3.00;1.67;;;26.40;18.70;;;;;;5122604;27;34134;-78
2022/09/14 13:13:59;;;;;;;3.63;1.60;;;26.30;17.50;;;;;;5103521;28;34029;-80